Terminal Aerodrome Forecast
Issued by NWS

Home | Current Version | Previous Version | Text Only | Print | Product List | Glossary On
Versions: 1 2 3 4 5 6 7 8 9 10 11 12 13
940
FTUS45 KRIW 291720
TAFJAC
TAF
KJAC 291720Z 2918/3018 VRB05KT P6SM SKC
     FM292000 26011KT P6SM FEW080
     FM300200 01007KT P6SM FEW110
     FM301000 VRB05KT P6SM SKC
      AMD LTD TO CLD VIS AND WIND=

USA.gov is the U.S. government's official web portal to all federal, state and local government web resources and services.